createdAt,value
2023-01-28T00:00:01.163Z,58.30
2023-01-28T00:02:30.993Z,58.40
2023-01-28T00:04:58.834Z,58.40
2023-01-28T00:07:27.049Z,58.40
2023-01-28T00:09:54.921Z,58.20
2023-01-28T00:12:22.697Z,58.30
2023-01-28T00:14:51.488Z,58.20
2023-01-28T00:17:19.240Z,58.30
2023-01-28T00:19:48.347Z,58.20
2023-01-28T00:22:16.244Z,58.20
2023-01-28T00:24:45.075Z,58.30
2023-01-28T00:27:13.013Z,58.30
2023-01-28T00:29:40.775Z,58.30
2023-01-28T00:32:08.615Z,58.30
2023-01-28T00:34:36.652Z,58.20
2023-01-28T00:37:06.428Z,58.20
2023-01-28T00:39:34.380Z,58.10
2023-01-28T00:42:02.384Z,58.10
2023-01-28T00:44:30.322Z,58.20
2023-01-28T00:46:58.521Z,58.10
2023-01-28T00:49:26.565Z,58.20
2023-01-28T00:51:54.786Z,58.10
2023-01-28T00:54:23.991Z,58.10
2023-01-28T00:56:53.550Z,58.10
2023-01-28T00:59:21.299Z,58.10
2023-01-28T01:01:49.705Z,58.20
2023-01-28T01:04:26.393Z,58.20
2023-01-28T01:06:54.915Z,58.10
2023-01-28T01:09:24.164Z,58.20
2023-01-28T01:11:51.892Z,58.10
2023-01-28T01:14:19.701Z,58.10
2023-01-28T01:16:47.565Z,58.00
2023-01-28T01:19:16.345Z,58.00
2023-01-28T01:21:44.286Z,58.00
2023-01-28T01:24:12.607Z,58.00
2023-01-28T01:26:42.022Z,58.00
2023-01-28T01:29:10.850Z,58.00
2023-01-28T01:31:39.016Z,58.00
2023-01-28T01:34:07.209Z,58.00
2023-01-28T01:36:35.090Z,58.00
2023-01-28T01:39:03.062Z,57.90
2023-01-28T01:41:31.670Z,57.90
2023-01-28T01:44:01.591Z,58.00
2023-01-28T01:46:34.423Z,57.90
2023-01-28T01:49:06.896Z,57.90
2023-01-28T01:51:35.654Z,57.80
2023-01-28T01:54:03.637Z,57.80
2023-01-28T01:56:34.157Z,57.80
2023-01-28T01:59:04.041Z,57.70
2023-01-28T02:01:32.568Z,57.70
2023-01-28T02:04:06.129Z,57.80
2023-01-28T02:06:34.069Z,57.70
2023-01-28T02:09:01.809Z,57.80
2023-01-28T02:11:31.834Z,57.60
2023-01-28T02:14:00.776Z,57.60
2023-01-28T02:16:30.366Z,57.50
2023-01-28T02:18:58.148Z,57.60
2023-01-28T02:22:05.341Z,57.60
2023-01-28T02:24:53.119Z,57.40
2023-01-28T02:27:25.373Z,57.50
2023-01-28T02:29:57.462Z,57.50
2023-01-28T02:32:27.126Z,57.40
2023-01-28T02:34:57.962Z,57.30
2023-01-28T02:37:28.701Z,57.40
2023-01-28T02:39:58.181Z,57.30
2023-01-28T02:42:28.445Z,57.40
2023-01-28T02:44:57.513Z,57.30
2023-01-28T02:47:42.892Z,57.30
2023-01-28T02:50:12.448Z,57.10
2023-01-28T02:53:08.170Z,57.10
2023-01-28T02:55:39.652Z,57.20
2023-01-28T02:58:11.691Z,57.20
2023-01-28T03:00:45.596Z,57.00
2023-01-28T03:03:17.258Z,57.00
2023-01-28T03:06:03.680Z,57.00
2023-01-28T03:08:52.253Z,56.90
2023-01-28T03:11:37.612Z,56.80
2023-01-28T03:14:23.792Z,56.70
2023-01-28T03:17:10.803Z,56.70
2023-01-28T03:19:56.571Z,56.70
2023-01-28T03:22:42.217Z,56.50
2023-01-28T03:25:27.775Z,56.60
2023-01-28T03:28:15.336Z,56.50
2023-01-28T03:31:03.067Z,56.50
2023-01-28T03:33:49.893Z,56.40
2023-01-28T03:36:35.675Z,56.30
2023-01-28T03:39:03.375Z,56.40
2023-01-28T03:41:31.087Z,56.30
2023-01-28T03:44:12.737Z,56.20
2023-01-28T03:46:40.843Z,56.20
2023-01-28T03:49:09.867Z,56.20
2023-01-28T03:51:37.561Z,56.10
2023-01-28T03:54:05.587Z,56.20
2023-01-28T03:56:37.386Z,56.10
2023-01-28T03:59:05.369Z,56.10
2023-01-28T04:01:33.248Z,56.00
2023-01-28T04:04:01.487Z,56.00
2023-01-28T04:06:30.969Z,56.00
2023-01-28T04:09:00.212Z,55.90
2023-01-28T04:11:27.932Z,55.70
2023-01-28T04:13:56.009Z,55.80
2023-01-28T04:16:23.703Z,56.40
2023-01-28T04:18:51.891Z,55.70
2023-01-28T04:21:20.563Z,55.50
2023-01-28T04:23:50.297Z,55.60
2023-01-28T04:26:17.945Z,55.60
2023-01-28T04:28:45.632Z,55.50
2023-01-28T04:31:13.724Z,55.50
2023-01-28T04:33:41.406Z,55.40
2023-01-28T04:36:09.838Z,55.30
2023-01-28T04:38:37.793Z,55.30
2023-01-28T04:41:07.794Z,55.20
2023-01-28T04:43:35.782Z,55.20
2023-01-28T04:46:04.088Z,55.10
2023-01-28T04:48:32.052Z,55.10
2023-01-28T04:51:00.433Z,55.00
2023-01-28T04:53:28.271Z,55.00
2023-01-28T04:55:56.374Z,54.90
2023-01-28T04:58:25.407Z,54.90
2023-01-28T05:00:57.636Z,54.80
2023-01-28T05:03:25.692Z,55.00
2023-01-28T05:05:53.618Z,54.90
2023-01-28T05:08:21.507Z,54.80
2023-01-28T05:10:49.182Z,54.90
2023-01-28T05:13:17.367Z,54.80
2023-01-28T05:15:52.208Z,54.70
2023-01-28T05:18:20.353Z,54.70
2023-01-28T05:20:48.513Z,54.80
2023-01-28T05:23:16.570Z,54.70
2023-01-28T05:25:45.293Z,54.60
2023-01-28T05:28:13.572Z,54.60
2023-01-28T05:30:41.267Z,54.70
2023-01-28T05:33:10.766Z,54.50
2023-01-28T05:35:38.620Z,54.50
2023-01-28T05:38:06.920Z,54.50
2023-01-28T05:40:34.610Z,54.50
2023-01-28T05:43:02.533Z,54.40
2023-01-28T05:45:30.884Z,54.50
2023-01-28T05:47:58.862Z,54.40
2023-01-28T05:50:28.591Z,54.30
2023-01-28T05:52:56.490Z,54.50
2023-01-28T05:55:24.819Z,54.30
2023-01-28T05:57:52.753Z,54.30
2023-01-28T06:00:21.644Z,54.30
2023-01-28T06:02:49.497Z,54.30
2023-01-28T06:05:17.272Z,54.20
2023-01-28T06:07:47.155Z,54.10
2023-01-28T06:10:15.519Z,54.10
2023-01-28T06:12:43.701Z,54.20
2023-01-28T06:15:12.412Z,54.20
2023-01-28T06:17:40.427Z,54.10
2023-01-28T06:20:09.595Z,54.00
2023-01-28T06:22:37.884Z,54.10
2023-01-28T06:25:08.467Z,54.00
2023-01-28T06:27:36.719Z,54.00
2023-01-28T06:30:04.959Z,53.90
2023-01-28T06:32:34.245Z,53.90
2023-01-28T06:35:02.116Z,53.80
2023-01-28T06:37:30.424Z,53.90
2023-01-28T06:39:58.315Z,53.90
2023-01-28T06:42:27.721Z,53.80
2023-01-28T06:44:55.613Z,53.70
2023-01-28T06:47:24.063Z,53.70
2023-01-28T06:49:51.940Z,53.70
2023-01-28T06:52:20.161Z,53.70
2023-01-28T06:54:48.064Z,53.70
2023-01-28T06:57:16.223Z,53.80
2023-01-28T06:59:45.519Z,53.60
2023-01-28T07:02:13.820Z,53.60
2023-01-28T07:04:41.696Z,53.70
2023-01-28T07:07:09.599Z,53.70
2023-01-28T07:09:37.921Z,53.60
2023-01-28T07:12:06.082Z,53.70
2023-01-28T07:14:34.495Z,54.20
2023-01-28T07:17:03.853Z,53.60
2023-01-28T07:19:32.142Z,53.50
2023-01-28T07:22:03.019Z,53.70
2023-01-28T07:24:31.440Z,53.60
2023-01-28T07:26:59.399Z,53.60
2023-01-28T07:29:27.286Z,53.60
2023-01-28T07:31:55.112Z,53.50
2023-01-28T07:34:24.932Z,53.60
2023-01-28T07:36:52.761Z,53.70
2023-01-28T07:39:20.616Z,53.60
2023-01-28T07:41:48.866Z,53.60
2023-01-28T07:44:16.742Z,53.60
2023-01-28T07:46:45.170Z,53.70
2023-01-28T07:49:13.342Z,53.70
2023-01-28T07:51:42.992Z,53.60
2023-01-28T07:54:10.956Z,53.60
2023-01-28T07:56:38.966Z,54.20
2023-01-28T07:59:06.740Z,53.70
2023-01-28T08:01:34.478Z,53.60
2023-01-28T08:04:02.714Z,53.80
2023-01-28T08:06:30.561Z,53.80
2023-01-28T08:08:59.972Z,53.70
2023-01-28T08:11:27.729Z,53.80
2023-01-28T08:13:55.438Z,53.70
2023-01-28T08:16:23.421Z,53.80
2023-01-28T08:18:51.259Z,53.80
2023-01-28T08:21:19.189Z,53.60
2023-01-28T08:23:47.113Z,53.80
2023-01-28T08:26:16.450Z,53.80
2023-01-28T08:28:44.841Z,53.90
2023-01-28T08:31:12.714Z,53.90
2023-01-28T08:33:40.907Z,54.00
2023-01-28T08:36:09.413Z,54.00
2023-01-28T08:38:37.213Z,54.00
2023-01-28T08:41:05.261Z,54.20
2023-01-28T08:43:35.063Z,54.20
2023-01-28T08:46:03.087Z,54.90
2023-01-28T08:48:31.043Z,54.50
2023-01-28T08:51:00.269Z,54.70
2023-01-28T08:53:28.222Z,54.80
2023-01-28T08:55:56.797Z,54.90
2023-01-28T08:58:24.782Z,55.10
2023-01-28T09:00:54.289Z,55.30
2023-01-28T09:03:22.062Z,55.50
2023-01-28T09:05:50.955Z,55.90
2023-01-28T09:08:18.852Z,56.00
2023-01-28T09:10:47.138Z,56.20
2023-01-28T09:13:15.980Z,56.00
2023-01-28T09:15:44.516Z,56.00
2023-01-28T09:18:13.828Z,56.20
2023-01-28T09:20:42.054Z,56.20
2023-01-28T09:23:10.014Z,56.30
2023-01-28T09:25:37.948Z,56.40
2023-01-28T09:28:06.678Z,56.60
2023-01-28T09:30:37.072Z,56.70
2023-01-28T09:33:06.035Z,56.90
2023-01-28T09:35:35.991Z,56.80
2023-01-28T09:38:04.575Z,56.90
2023-01-28T09:40:35.995Z,56.90
2023-01-28T09:43:25.717Z,56.80
2023-01-28T09:45:53.679Z,56.90
2023-01-28T09:48:23.962Z,57.00
2023-01-28T09:50:54.176Z,57.00
2023-01-28T09:53:23.560Z,57.60
2023-01-28T09:55:52.384Z,57.20
2023-01-28T09:58:20.612Z,57.60
2023-01-28T10:00:52.695Z,57.30
2023-01-28T10:03:30.193Z,57.10
2023-01-28T10:06:03.545Z,57.40
2023-01-28T10:08:40.680Z,57.20
2023-01-28T10:11:13.265Z,57.60
2023-01-28T10:13:44.370Z,57.40
2023-01-28T10:16:17.644Z,57.40
2023-01-28T10:18:47.524Z,57.80
2023-01-28T10:21:17.830Z,57.80
2023-01-28T10:23:50.144Z,58.30
2023-01-28T10:26:34.192Z,58.40
2023-01-28T10:29:05.240Z,58.60
2023-01-28T10:31:35.720Z,58.70
2023-01-28T10:34:04.608Z,59.00
2023-01-28T10:36:33.927Z,59.10
2023-01-28T10:39:01.701Z,59.20
2023-01-28T10:41:29.924Z,58.60
2023-01-28T10:43:58.136Z,58.30
2023-01-28T10:46:29.366Z,58.30
2023-01-28T10:49:00.025Z,58.30
2023-01-28T10:51:36.777Z,58.30
2023-01-28T10:54:06.019Z,58.20
2023-01-28T10:56:36.054Z,58.50
2023-01-28T10:59:04.974Z,58.10
2023-01-28T11:01:45.021Z,58.10
2023-01-28T11:04:18.462Z,58.40
2023-01-28T11:06:59.148Z,58.90
2023-01-28T11:09:28.557Z,58.80
2023-01-28T11:11:56.615Z,58.80
2023-01-28T11:14:25.397Z,58.80
2023-01-28T11:16:55.163Z,58.40
2023-01-28T11:19:28.440Z,58.50
2023-01-28T11:21:58.174Z,58.30
2023-01-28T11:24:28.117Z,58.20
2023-01-28T11:26:56.876Z,58.10
2023-01-28T11:29:27.758Z,58.00
2023-01-28T11:31:56.018Z,57.50
2023-01-28T11:34:27.040Z,57.30
2023-01-28T11:36:55.391Z,57.20
2023-01-28T11:39:26.065Z,56.70
2023-01-28T11:41:54.185Z,56.50
2023-01-28T11:44:23.211Z,56.30
2023-01-28T11:47:01.898Z,55.90
2023-01-28T11:49:35.935Z,55.00
2023-01-28T11:52:06.632Z,55.00
2023-01-28T11:54:43.102Z,54.70
2023-01-28T11:57:24.561Z,55.00
2023-01-28T11:59:58.792Z,54.80
2023-01-28T12:02:46.617Z,54.60
2023-01-28T12:05:21.618Z,54.10
2023-01-28T12:07:53.330Z,53.70
2023-01-28T12:10:25.873Z,53.10
2023-01-28T12:13:04.747Z,52.60
2023-01-28T12:15:49.833Z,52.10
2023-01-28T12:18:24.189Z,51.70
2023-01-28T12:20:53.868Z,51.80
2023-01-28T12:23:31.191Z,51.80
2023-01-28T12:26:08.320Z,52.00
2023-01-28T12:28:44.701Z,52.30
2023-01-28T12:31:22.307Z,52.40
2023-01-28T12:33:57.659Z,52.70
2023-01-28T12:36:32.065Z,52.80
2023-01-28T12:39:04.337Z,53.00
2023-01-28T12:41:35.841Z,53.10
2023-01-28T12:44:06.814Z,53.40
2023-01-28T12:46:40.072Z,53.50
2023-01-28T12:49:09.423Z,53.60
2023-01-28T12:51:42.982Z,53.90
2023-01-28T12:54:14.000Z,53.80
2023-01-28T12:56:45.363Z,54.00
2023-01-28T12:59:15.264Z,54.10
2023-01-28T13:01:45.408Z,54.20
2023-01-28T13:04:17.769Z,54.20
2023-01-28T13:06:47.917Z,54.20
2023-01-28T13:09:17.984Z,54.40
2023-01-28T13:11:47.965Z,54.40
2023-01-28T13:14:15.746Z,54.20
2023-01-28T13:16:43.553Z,54.00
2023-01-28T13:19:23.462Z,54.30
2023-01-28T13:21:51.262Z,53.80
2023-01-28T13:24:24.510Z,54.40
2023-01-28T13:26:54.333Z,54.80
2023-01-28T13:29:29.926Z,53.70
2023-01-28T13:31:58.640Z,52.70
2023-01-28T13:34:33.561Z,51.80
2023-01-28T13:37:06.249Z,51.60
2023-01-28T13:39:34.913Z,51.60
2023-01-28T13:42:23.082Z,51.50
2023-01-28T13:44:51.044Z,51.40
2023-01-28T13:47:24.820Z,51.40
2023-01-28T13:49:56.696Z,51.30
2023-01-28T13:52:29.570Z,51.50
2023-01-28T13:55:01.796Z,51.70
2023-01-28T13:58:21.006Z,51.90
2023-01-28T14:01:02.783Z,52.10
2023-01-28T14:03:52.936Z,52.30
2023-01-28T14:06:36.719Z,52.40
2023-01-28T14:09:15.121Z,52.40
2023-01-28T14:12:16.458Z,52.50
2023-01-28T14:15:07.140Z,52.50
2023-01-28T14:17:40.412Z,52.60
2023-01-28T14:20:09.541Z,52.80
2023-01-28T14:22:37.423Z,52.80
2023-01-28T14:25:12.681Z,52.80
2023-01-28T14:27:42.242Z,53.00
2023-01-28T14:30:14.971Z,53.00
2023-01-28T14:32:47.798Z,53.10
2023-01-28T14:35:19.499Z,53.30
2023-01-28T14:37:47.486Z,53.30
2023-01-28T14:40:16.578Z,53.40
2023-01-28T14:42:46.327Z,53.40
2023-01-28T14:45:24.073Z,53.60
2023-01-28T14:48:15.135Z,53.60
2023-01-28T14:50:54.502Z,53.70
2023-01-28T14:53:39.497Z,53.70
2023-01-28T14:56:11.199Z,53.70
2023-01-28T14:58:41.377Z,53.80
2023-01-28T15:01:20.521Z,53.80
2023-01-28T15:03:50.309Z,53.80
2023-01-28T15:06:20.428Z,53.90
2023-01-28T15:08:48.382Z,54.00
2023-01-28T15:11:17.839Z,53.90
2023-01-28T15:13:47.505Z,53.90
2023-01-28T15:16:19.535Z,53.90
2023-01-28T15:18:48.820Z,53.90
2023-01-28T15:21:19.725Z,53.80
2023-01-28T15:23:49.409Z,53.80
2023-01-28T15:26:19.706Z,53.70
2023-01-28T15:28:48.463Z,53.70
2023-01-28T15:31:23.938Z,53.60
2023-01-28T15:33:59.889Z,53.60
2023-01-28T15:36:28.036Z,53.50
2023-01-28T15:38:55.716Z,53.50
2023-01-28T15:41:25.159Z,53.50
2023-01-28T15:43:53.424Z,53.40
2023-01-28T15:46:21.111Z,53.30
2023-01-28T15:48:52.895Z,53.20
2023-01-28T15:51:24.260Z,53.20
2023-01-28T15:53:53.715Z,53.10
2023-01-28T15:56:25.989Z,53.00
2023-01-28T15:58:53.753Z,53.00
2023-01-28T16:01:21.997Z,53.00
2023-01-28T16:04:02.166Z,52.90
2023-01-28T16:06:34.352Z,52.90
2023-01-28T16:09:03.339Z,52.80
2023-01-28T16:11:32.223Z,52.90
2023-01-28T16:14:00.447Z,52.90
2023-01-28T16:16:29.823Z,52.80
2023-01-28T16:18:57.742Z,52.80
2023-01-28T16:21:26.274Z,52.80
2023-01-28T16:24:00.790Z,52.80
2023-01-28T16:26:29.535Z,52.90
2023-01-28T16:28:57.636Z,52.90
2023-01-28T16:31:25.689Z,53.00
2023-01-28T16:33:53.829Z,53.00
2023-01-28T16:36:21.751Z,53.00
2023-01-28T16:38:49.649Z,53.10
2023-01-28T16:41:23.186Z,53.20
2023-01-28T16:43:51.217Z,53.30
2023-01-28T16:46:19.672Z,53.30
2023-01-28T16:48:51.076Z,53.20
2023-01-28T16:51:19.705Z,53.40
2023-01-28T16:53:48.049Z,53.40
2023-01-28T16:56:30.355Z,53.50
2023-01-28T16:59:03.970Z,53.70
2023-01-28T17:01:31.745Z,53.60
2023-01-28T17:03:59.504Z,53.60
2023-01-28T17:06:27.497Z,53.60
2023-01-28T17:08:55.541Z,53.70
2023-01-28T17:11:24.628Z,53.70
2023-01-28T17:13:52.388Z,53.80
2023-01-28T17:16:20.328Z,53.90
2023-01-28T17:18:51.640Z,53.80
2023-01-28T17:21:19.371Z,54.40
2023-01-28T17:23:47.579Z,53.90
2023-01-28T17:26:16.237Z,53.90
2023-01-28T17:28:45.818Z,54.00
2023-01-28T17:31:14.866Z,53.90
2023-01-28T17:33:42.985Z,54.00
2023-01-28T17:36:11.690Z,54.00
2023-01-28T17:38:39.451Z,53.90
2023-01-28T17:41:08.585Z,53.90
2023-01-28T17:43:36.360Z,53.80
2023-01-28T17:46:13.020Z,53.90
2023-01-28T17:48:41.046Z,53.80
2023-01-28T17:51:09.260Z,53.80
2023-01-28T17:53:37.045Z,53.80
2023-01-28T17:56:05.148Z,53.70
2023-01-28T17:58:33.373Z,53.70
2023-01-28T18:01:01.260Z,53.70
2023-01-28T18:03:30.831Z,53.70
2023-01-28T18:05:59.331Z,53.60
2023-01-28T18:08:27.774Z,53.60
2023-01-28T18:10:56.085Z,53.60
2023-01-28T18:13:24.247Z,54.20
2023-01-28T18:15:52.032Z,53.60
2023-01-28T18:18:19.850Z,53.50
2023-01-28T18:20:57.317Z,53.50
2023-01-28T18:23:25.664Z,53.40
2023-01-28T18:25:57.005Z,53.50
2023-01-28T18:28:24.911Z,53.50
2023-01-28T18:30:53.131Z,53.50
2023-01-28T18:33:21.125Z,53.50
2023-01-28T18:35:50.924Z,53.50
2023-01-28T18:38:19.375Z,53.40
2023-01-28T18:40:47.320Z,53.40
2023-01-28T18:43:15.459Z,53.40
2023-01-28T18:45:45.964Z,53.40
2023-01-28T18:48:13.983Z,53.40
2023-01-28T18:50:42.329Z,53.70
2023-01-28T18:53:11.739Z,54.10
2023-01-28T18:55:39.724Z,54.30
2023-01-28T18:58:07.627Z,54.30
2023-01-28T19:00:35.520Z,54.20
2023-01-28T19:03:03.496Z,54.10
2023-01-28T19:05:35.771Z,54.00
2023-01-28T19:08:03.795Z,53.90
2023-01-28T19:10:33.199Z,53.80
2023-01-28T19:13:01.283Z,53.70
2023-01-28T19:15:29.308Z,53.70
2023-01-28T19:17:57.636Z,53.70
2023-01-28T19:20:25.590Z,53.40
2023-01-28T19:22:53.742Z,53.30
2023-01-28T19:25:21.527Z,53.30
2023-01-28T19:27:53.224Z,53.20
2023-01-28T19:30:21.570Z,46.20
2023-01-28T19:32:49.999Z,49.40
2023-01-28T19:35:18.409Z,50.90
2023-01-28T19:37:46.796Z,54.30
2023-01-28T19:40:15.167Z,55.60
2023-01-28T19:42:43.042Z,56.50
2023-01-28T19:45:13.404Z,57.20
2023-01-28T19:47:41.334Z,57.80
2023-01-28T19:50:10.676Z,58.20
2023-01-28T19:52:38.493Z,58.80
2023-01-28T19:55:08.025Z,59.00
2023-01-28T19:57:35.933Z,62.80
2023-01-28T20:00:04.370Z,64.70
2023-01-28T20:02:33.658Z,60.40
2023-01-28T20:05:02.104Z,57.70
2023-01-28T20:07:29.977Z,55.80
2023-01-28T20:09:58.033Z,54.20
2023-01-28T20:12:25.920Z,52.90
2023-01-28T20:14:54.162Z,52.10
2023-01-28T20:17:22.286Z,51.80
2023-01-28T20:19:51.370Z,51.60
2023-01-28T20:22:19.407Z,51.20
2023-01-28T20:24:48.939Z,50.80
2023-01-28T20:27:17.104Z,50.50
2023-01-28T20:29:44.775Z,50.30
2023-01-28T20:32:18.383Z,50.20
2023-01-28T20:34:47.973Z,50.00
2023-01-28T20:37:17.228Z,49.90
2023-01-28T20:39:45.220Z,49.70
2023-01-28T20:42:13.746Z,49.70
2023-01-28T20:44:41.613Z,49.60
2023-01-28T20:47:09.744Z,49.50
2023-01-28T20:49:37.777Z,49.60
2023-01-28T20:52:06.130Z,49.50
2023-01-28T20:54:35.528Z,49.40
2023-01-28T20:57:03.626Z,49.40
2023-01-28T20:59:32.443Z,49.40
2023-01-28T21:02:03.621Z,49.60
2023-01-28T21:04:32.145Z,49.50
2023-01-28T21:07:00.229Z,49.70
2023-01-28T21:09:36.594Z,49.70
2023-01-28T21:12:05.340Z,49.80
2023-01-28T21:14:33.951Z,50.00
2023-01-28T21:17:02.125Z,51.20
2023-01-28T21:19:30.669Z,51.70
2023-01-28T21:21:58.599Z,52.60
2023-01-28T21:24:26.945Z,53.10
2023-01-28T21:26:56.261Z,52.70
2023-01-28T21:29:24.074Z,53.00
2023-01-28T21:31:51.883Z,52.20
2023-01-28T21:34:20.311Z,56.50
2023-01-28T21:36:48.217Z,56.80
2023-01-28T21:39:15.989Z,57.20
2023-01-28T21:41:44.460Z,57.20
2023-01-28T21:45:02.642Z,56.80
2023-01-28T21:47:32.535Z,56.70
2023-01-28T21:50:01.302Z,60.40
2023-01-28T21:52:29.971Z,58.40
2023-01-28T21:54:59.266Z,57.60
2023-01-28T21:57:27.450Z,56.80
2023-01-28T21:59:54.369Z,56.80
2023-01-28T22:02:24.036Z,55.30
2023-01-28T22:04:53.519Z,54.60
2023-01-28T22:07:21.501Z,54.00
2023-01-28T22:09:49.555Z,53.90
2023-01-28T22:12:17.565Z,53.50
2023-01-28T22:14:46.973Z,53.20
2023-01-28T22:17:17.468Z,52.50
2023-01-28T22:19:48.088Z,52.20
2023-01-28T22:22:18.250Z,52.20
2023-01-28T22:24:46.069Z,52.20
2023-01-28T22:27:14.017Z,51.50
2023-01-28T22:29:41.889Z,51.60
2023-01-28T22:32:09.719Z,51.90
2023-01-28T22:34:37.895Z,51.60
2023-01-28T22:37:07.145Z,51.20
2023-01-28T22:39:36.597Z,51.20
2023-01-28T22:42:04.552Z,51.50
2023-01-28T22:44:32.752Z,51.20
2023-01-28T22:47:00.489Z,50.90
2023-01-28T22:49:28.265Z,51.00
2023-01-28T22:51:56.441Z,51.00
2023-01-28T22:54:24.260Z,50.60
2023-01-28T22:56:53.365Z,50.60
2023-01-28T22:59:21.274Z,50.40
2023-01-28T23:01:49.137Z,50.60
2023-01-28T23:04:16.908Z,50.50
2023-01-28T23:06:44.760Z,50.50
2023-01-28T23:09:12.502Z,50.50
2023-01-28T23:11:40.684Z,50.40
2023-01-28T23:14:27.930Z,50.70
2023-01-28T23:17:13.448Z,50.50
2023-01-28T23:19:58.967Z,50.40
2023-01-28T23:22:46.190Z,51.20
2023-01-28T23:25:14.001Z,50.30
2023-01-28T23:27:42.261Z,50.70
2023-01-28T23:30:13.038Z,50.50
2023-01-28T23:32:41.968Z,50.40
2023-01-28T23:35:10.187Z,50.80
2023-01-28T23:37:38.131Z,51.00
2023-01-28T23:40:07.055Z,50.70
2023-01-28T23:42:34.872Z,50.70
2023-01-28T23:45:02.820Z,50.90
2023-01-28T23:47:31.959Z,50.80
2023-01-28T23:50:00.292Z,50.70
2023-01-28T23:52:28.334Z,51.00
2023-01-28T23:54:56.076Z,50.90
2023-01-28T23:57:24.157Z,50.90
2023-01-28T23:59:52.053Z,50.60
